Terminal Aerodrome Forecast
Issued by NWS

Home | Current Version | Previous Version | Text Only | Print | Product List | Glossary On
Versions: 1 2 3 4 5 6 7 8 9 10 11 12 13 14 15 16 17 18
619
FTUS41 KPBZ 141727
TAFBVI
TAF
KBVI 141727Z 1418/1518 14004KT P6SM BKN250
     FM150100 09005KT P6SM BKN100
     FM150700 15009KT 5SM -SN OVC015
     FM151500 16012KT P6SM OVC015=

USA.gov is the U.S. government's official web portal to all federal, state and local government web resources and services.